createdAt,value
2018-01-13T00:01:15.135Z,83.70
2018-01-13T00:03:41.391Z,83.90
2018-01-13T00:06:07.686Z,83.80
2018-01-13T00:08:36.794Z,83.60
2018-01-13T00:11:03.231Z,83.60
2018-01-13T00:13:29.810Z,83.70
2018-01-13T00:15:56.908Z,83.80
2018-01-13T00:18:23.199Z,84.10
2018-01-13T00:20:49.423Z,84.00
2018-01-13T00:23:15.700Z,84.00
2018-01-13T00:25:41.955Z,83.80
2018-01-13T00:28:08.317Z,84.00
2018-01-13T00:30:35.336Z,84.00
2018-01-13T00:33:01.559Z,83.90
2018-01-13T00:35:27.818Z,83.90
2018-01-13T00:37:54.366Z,84.00
2018-01-13T00:40:20.641Z,84.50
2018-01-13T00:42:46.896Z,84.00
2018-01-13T00:45:13.167Z,84.50
2018-01-13T00:47:39.425Z,84.10
2018-01-13T00:50:06.515Z,84.20
2018-01-13T00:52:32.754Z,84.10
2018-01-13T00:54:59.059Z,84.10
2018-01-13T00:57:26.459Z,84.00
2018-01-13T00:59:52.696Z,84.20
2018-01-13T01:02:18.966Z,84.00
2018-01-13T01:04:45.270Z,84.20
2018-01-13T01:07:26.463Z,84.30
2018-01-13T01:09:53.442Z,84.00
2018-01-13T01:12:20.841Z,84.00
2018-01-13T01:14:47.171Z,83.80
2018-01-13T01:17:13.422Z,84.10
2018-01-13T01:19:41.345Z,83.90
2018-01-13T01:22:07.619Z,83.70
2018-01-13T01:24:33.856Z,83.80
2018-01-13T01:27:00.827Z,84.00
2018-01-13T01:29:27.090Z,83.90
2018-01-13T01:31:53.335Z,83.80
2018-01-13T01:34:19.607Z,83.70
2018-01-13T01:36:46.559Z,83.60
2018-01-13T01:39:12.823Z,83.40
2018-01-13T01:41:39.050Z,83.40
2018-01-13T01:44:05.323Z,83.30
2018-01-13T01:46:31.585Z,83.30
2018-01-13T01:48:57.824Z,83.20
2018-01-13T01:51:24.087Z,83.40
2018-01-13T01:53:50.331Z,83.70
2018-01-13T01:56:16.590Z,83.60
2018-01-13T01:58:42.822Z,83.30
2018-01-13T02:01:09.820Z,83.60
2018-01-13T02:03:36.083Z,83.60
2018-01-13T02:06:02.331Z,83.60
2018-01-13T02:08:28.561Z,83.90
2018-01-13T02:10:55.562Z,83.60
2018-01-13T02:13:21.830Z,83.50
2018-01-13T02:15:48.087Z,83.60
2018-01-13T02:18:14.346Z,83.90
2018-01-13T02:20:40.605Z,83.80
2018-01-13T02:23:06.907Z,83.80
2018-01-13T02:25:33.227Z,83.80
2018-01-13T02:27:59.482Z,83.70
2018-01-13T02:30:25.723Z,83.70
2018-01-13T02:32:52.003Z,83.70
2018-01-13T02:35:18.253Z,83.60
2018-01-13T02:37:44.562Z,83.70
2018-01-13T02:40:10.821Z,83.80
2018-01-13T02:42:37.071Z,83.90
2018-01-13T02:45:03.428Z,83.90
2018-01-13T02:47:29.765Z,84.00
2018-01-13T02:49:56.031Z,84.10
2018-01-13T02:52:22.283Z,84.00
2018-01-13T02:54:48.826Z,84.10
2018-01-13T02:57:15.059Z,83.90
2018-01-13T02:59:43.146Z,84.00
2018-01-13T03:02:09.366Z,83.70
2018-01-13T03:04:35.642Z,83.90
2018-01-13T03:07:01.884Z,83.60
2018-01-13T03:09:28.135Z,83.80
2018-01-13T03:11:54.395Z,83.90
2018-01-13T03:14:21.655Z,83.80
2018-01-13T03:16:47.935Z,84.00
2018-01-13T03:19:14.200Z,83.90
2018-01-13T03:21:40.775Z,83.90
2018-01-13T03:24:07.251Z,84.10
2018-01-13T03:26:33.516Z,83.80
2018-01-13T03:28:59.746Z,84.00
2018-01-13T03:31:26.015Z,84.00
2018-01-13T03:33:52.262Z,84.00
2018-01-13T03:36:18.520Z,83.90
2018-01-13T03:38:44.768Z,84.10
2018-01-13T03:41:11.029Z,84.20
2018-01-13T03:43:38.052Z,84.20
2018-01-13T03:46:04.286Z,84.10
2018-01-13T03:48:30.559Z,84.30
2018-01-13T03:50:56.828Z,84.40
2018-01-13T03:53:23.110Z,84.30
2018-01-13T03:55:49.344Z,84.10
2018-01-13T03:58:15.610Z,84.10
2018-01-13T04:00:41.858Z,84.30
2018-01-13T04:03:08.101Z,84.90
2018-01-13T04:05:34.347Z,84.40
2018-01-13T04:08:01.359Z,84.40
2018-01-13T04:10:27.647Z,84.40
2018-01-13T04:12:53.899Z,84.60
2018-01-13T04:15:20.499Z,84.40
2018-01-13T04:17:46.719Z,84.60
2018-01-13T04:20:13.126Z,84.80
2018-01-13T04:22:40.408Z,84.70
2018-01-13T04:25:06.671Z,84.80
2018-01-13T04:27:32.922Z,84.70
2018-01-13T04:29:59.195Z,84.60
2018-01-13T04:32:25.459Z,84.50
2018-01-13T04:34:52.631Z,84.60
2018-01-13T04:37:20.187Z,84.60
2018-01-13T04:39:46.451Z,84.60
2018-01-13T04:42:12.720Z,84.70
2018-01-13T04:44:38.957Z,84.70
2018-01-13T04:47:05.212Z,84.60
2018-01-13T04:49:31.459Z,84.70
2018-01-13T04:51:57.760Z,84.70
2018-01-13T04:54:24.744Z,84.60
2018-01-13T04:56:50.979Z,84.60
2018-01-13T04:59:17.243Z,84.40
2018-01-13T05:01:43.487Z,84.60
2018-01-13T05:04:10.499Z,84.30
2018-01-13T05:06:36.742Z,84.30
2018-01-13T05:09:03.347Z,84.20
2018-01-13T05:11:29.594Z,84.00
2018-01-13T05:13:55.872Z,84.00
2018-01-13T05:16:22.102Z,83.90
2018-01-13T05:18:49.119Z,83.80
2018-01-13T05:21:15.537Z,83.80
2018-01-13T05:23:41.809Z,83.60
2018-01-13T05:26:08.976Z,83.50
2018-01-13T05:28:35.247Z,83.60
2018-01-13T05:31:01.515Z,83.60
2018-01-13T05:33:27.754Z,83.60
2018-01-13T05:35:54.039Z,83.50
2018-01-13T05:38:20.283Z,83.60
2018-01-13T05:40:46.551Z,83.40
2018-01-13T05:43:12.783Z,83.40
2018-01-13T05:45:39.053Z,83.30
2018-01-13T05:48:05.652Z,83.30
2018-01-13T05:50:32.673Z,83.60
2018-01-13T05:52:58.916Z,83.60
2018-01-13T05:55:25.175Z,83.60
2018-01-13T05:57:51.459Z,83.60
2018-01-13T06:00:18.337Z,83.60
2018-01-13T06:02:45.358Z,83.70
2018-01-13T06:05:11.582Z,83.70
2018-01-13T06:07:37.827Z,83.60
2018-01-13T06:10:04.088Z,83.50
2018-01-13T06:12:31.143Z,83.30
2018-01-13T06:14:57.579Z,83.30
2018-01-13T06:17:24.662Z,83.30
2018-01-13T06:19:51.466Z,83.30
2018-01-13T06:22:17.843Z,83.30
2018-01-13T06:24:44.190Z,83.20
2018-01-13T06:27:10.420Z,83.10
2018-01-13T06:29:37.689Z,83.60
2018-01-13T06:32:03.996Z,83.10
2018-01-13T06:34:30.315Z,83.10
2018-01-13T06:36:56.568Z,82.90
2018-01-13T06:39:22.839Z,82.80
2018-01-13T06:41:49.110Z,82.10
2018-01-13T06:44:15.488Z,82.00
2018-01-13T06:46:41.727Z,82.10
2018-01-13T06:49:08.743Z,81.70
2018-01-13T06:51:34.995Z,81.70
2018-01-13T06:54:01.260Z,81.50
2018-01-13T06:56:27.487Z,81.50
2018-01-13T06:58:53.774Z,81.60
2018-01-13T07:01:20.083Z,81.80
2018-01-13T07:03:46.332Z,81.80
2018-01-13T07:06:12.742Z,81.40
2018-01-13T07:08:39.743Z,81.20
2018-01-13T07:11:06.000Z,80.70
2018-01-13T07:13:32.991Z,80.80
2018-01-13T07:15:59.246Z,81.30
2018-01-13T07:18:25.488Z,80.60
2018-01-13T07:20:51.751Z,80.90
2018-01-13T07:23:18.728Z,80.70
2018-01-13T07:25:52.047Z,80.70
2018-01-13T07:28:23.635Z,80.40
2018-01-13T07:30:50.615Z,80.30
2018-01-13T07:33:16.850Z,80.20
2018-01-13T07:35:53.619Z,79.70
2018-01-13T07:38:20.659Z,79.70
2018-01-13T07:40:47.907Z,79.50
2018-01-13T07:43:14.851Z,79.30
2018-01-13T07:45:41.203Z,79.30
2018-01-13T07:48:07.498Z,79.30
2018-01-13T07:50:33.726Z,79.40
2018-01-13T07:52:59.983Z,79.30
2018-01-13T07:55:26.226Z,79.30
2018-01-13T07:57:52.811Z,79.20
2018-01-13T08:00:19.563Z,79.40
2018-01-13T08:02:45.801Z,79.20
2018-01-13T08:05:12.066Z,79.00
2018-01-13T08:07:38.351Z,78.90
2018-01-13T08:10:04.648Z,79.10
2018-01-13T08:12:30.902Z,79.10
2018-01-13T08:14:57.160Z,79.00
2018-01-13T08:17:23.600Z,79.20
2018-01-13T08:19:49.869Z,79.10
2018-01-13T08:22:16.118Z,78.60
2018-01-13T08:24:42.383Z,78.00
2018-01-13T08:27:08.656Z,77.90
2018-01-13T08:29:34.955Z,77.60
2018-01-13T08:32:01.191Z,77.50
2018-01-13T08:34:27.487Z,77.40
2018-01-13T08:36:54.764Z,76.60
2018-01-13T08:39:22.531Z,76.50
2018-01-13T08:41:48.790Z,76.50
2018-01-13T08:44:15.031Z,76.30
2018-01-13T08:46:41.290Z,76.60
2018-01-13T08:49:07.523Z,76.40
2018-01-13T08:51:33.779Z,76.20
2018-01-13T08:54:00.011Z,76.40
2018-01-13T08:56:26.263Z,76.40
2018-01-13T08:58:52.999Z,76.10
2018-01-13T09:01:21.138Z,75.10
2018-01-13T09:03:47.435Z,74.90
2018-01-13T09:06:13.727Z,74.20
2018-01-13T09:08:40.003Z,73.50
2018-01-13T09:11:06.268Z,74.10
2018-01-13T09:13:32.547Z,73.80
2018-01-13T09:15:58.811Z,74.20
2018-01-13T09:18:25.078Z,74.40
2018-01-13T09:20:51.322Z,74.40
2018-01-13T09:23:20.063Z,74.80
2018-01-13T09:25:46.831Z,74.40
2018-01-13T09:28:13.090Z,74.40
2018-01-13T09:30:39.398Z,73.50
2018-01-13T09:33:05.820Z,73.30
2018-01-13T09:35:32.139Z,73.40
2018-01-13T09:37:58.424Z,73.20
2018-01-13T09:40:25.407Z,72.10
2018-01-13T09:42:51.675Z,72.10
2018-01-13T09:45:17.931Z,74.00
2018-01-13T09:47:44.200Z,71.30
2018-01-13T09:50:10.453Z,70.30
2018-01-13T09:52:51.636Z,70.10
2018-01-13T09:55:17.866Z,70.20
2018-01-13T09:57:44.154Z,69.80
2018-01-13T10:00:10.467Z,70.40
2018-01-13T10:02:37.459Z,70.10
2018-01-13T10:05:03.710Z,70.10
2018-01-13T10:07:29.968Z,69.60
2018-01-13T10:09:56.976Z,69.60
2018-01-13T10:12:23.206Z,69.60
2018-01-13T10:14:49.483Z,69.50
2018-01-13T10:17:16.481Z,69.10
2018-01-13T10:19:42.747Z,69.10
2018-01-13T10:22:08.991Z,69.30
2018-01-13T10:24:36.839Z,70.00
2018-01-13T10:27:03.398Z,70.00
2018-01-13T10:29:30.455Z,70.50
2018-01-13T10:31:57.695Z,70.50
2018-01-13T10:34:24.680Z,70.50
2018-01-13T10:36:50.959Z,70.50
2018-01-13T10:39:17.210Z,70.20
2018-01-13T10:41:43.478Z,70.20
2018-01-13T10:44:09.731Z,69.00
2018-01-13T10:46:35.977Z,69.50
2018-01-13T10:49:02.538Z,70.30
2018-01-13T10:51:29.590Z,69.80
2018-01-13T10:53:56.584Z,68.90
2018-01-13T10:56:22.859Z,68.80
2018-01-13T10:58:49.880Z,69.30
2018-01-13T11:01:16.124Z,69.20
2018-01-13T11:03:42.383Z,68.70
2018-01-13T11:06:08.651Z,69.10
2018-01-13T11:08:34.944Z,69.60
2018-01-13T11:11:01.246Z,68.70
2018-01-13T11:13:27.579Z,67.60
2018-01-13T11:15:53.834Z,68.10
2018-01-13T11:18:20.075Z,68.30
2018-01-13T11:20:46.311Z,67.20
2018-01-13T11:23:13.292Z,66.40
2018-01-13T11:25:39.564Z,66.40
2018-01-13T11:28:06.582Z,66.30
2018-01-13T11:30:32.838Z,66.30
2018-01-13T11:32:59.079Z,66.80
2018-01-13T11:35:26.167Z,66.80
2018-01-13T11:37:53.271Z,67.00
2018-01-13T11:40:19.502Z,67.00
2018-01-13T11:42:46.278Z,66.90
2018-01-13T11:45:12.531Z,66.90
2018-01-13T11:47:38.790Z,65.80
2018-01-13T11:50:05.046Z,65.20
2018-01-13T11:52:31.415Z,65.70
2018-01-13T11:54:57.652Z,66.00
2018-01-13T11:57:23.903Z,65.00
2018-01-13T11:59:50.139Z,64.80
2018-01-13T12:02:16.402Z,64.70
2018-01-13T12:04:42.633Z,63.90
2018-01-13T12:07:08.866Z,64.10
2018-01-13T12:09:35.104Z,64.80
2018-01-13T12:12:01.330Z,65.20
2018-01-13T12:14:27.582Z,64.90
2018-01-13T12:16:54.539Z,63.60
2018-01-13T12:19:21.030Z,63.40
2018-01-13T12:22:02.196Z,63.50
2018-01-13T12:24:28.472Z,63.30
2018-01-13T12:26:55.454Z,62.00
2018-01-13T12:29:21.682Z,62.00
2018-01-13T12:31:47.911Z,61.60
2018-01-13T12:34:14.169Z,61.50
2018-01-13T12:36:40.396Z,60.80
2018-01-13T12:39:06.653Z,59.90
2018-01-13T12:41:32.891Z,59.10
2018-01-13T12:43:59.115Z,58.40
2018-01-13T12:46:25.346Z,58.20
2018-01-13T12:48:51.578Z,58.30
2018-01-13T12:51:17.810Z,58.30
2018-01-13T12:53:44.050Z,59.70
2018-01-13T12:56:10.298Z,60.20
2018-01-13T12:58:37.246Z,59.80
2018-01-13T13:01:04.229Z,60.10
2018-01-13T13:03:30.482Z,60.10
2018-01-13T13:05:56.725Z,60.00
2018-01-13T13:08:22.934Z,60.00
2018-01-13T13:10:49.150Z,61.50
2018-01-13T13:13:15.387Z,60.90
2018-01-13T13:15:41.614Z,61.30
2018-01-13T13:18:07.847Z,60.90
2018-01-13T13:20:34.072Z,61.40
2018-01-13T13:23:00.322Z,61.40
2018-01-13T13:25:26.551Z,61.20
2018-01-13T13:27:52.773Z,61.30
2018-01-13T13:30:18.993Z,61.30
2018-01-13T13:35:19.907Z,61.10
2018-01-13T13:37:46.165Z,61.80
2018-01-13T13:40:12.391Z,61.60
2018-01-13T13:42:38.646Z,60.80
2018-01-13T13:45:05.556Z,61.20
2018-01-13T13:47:32.539Z,63.00
2018-01-13T13:49:58.739Z,63.00
2018-01-13T13:52:24.983Z,62.60
2018-01-13T13:54:51.230Z,61.80
2018-01-13T13:57:17.462Z,61.70
2018-01-13T13:59:43.730Z,62.00
2018-01-13T14:02:09.964Z,61.90
2018-01-13T14:04:36.206Z,62.00
2018-01-13T14:07:02.436Z,61.50
2018-01-13T14:09:29.435Z,62.00
2018-01-13T14:11:55.652Z,62.00
2018-01-13T14:14:21.911Z,62.70
2018-01-13T14:16:48.720Z,63.00
2018-01-13T14:19:14.967Z,62.80
2018-01-13T14:21:41.231Z,63.30
2018-01-13T14:24:07.462Z,62.70
2018-01-13T14:26:33.724Z,62.30
2018-01-13T14:28:59.971Z,62.40
2018-01-13T14:31:26.234Z,61.40
2018-01-13T14:33:52.462Z,61.90
2018-01-13T14:36:18.730Z,61.10
2018-01-13T14:38:45.715Z,62.30
2018-01-13T14:41:11.960Z,62.30
2018-01-13T14:43:38.210Z,62.40
2018-01-13T14:46:04.463Z,62.50
2018-01-13T14:48:31.467Z,61.70
2018-01-13T14:50:57.708Z,61.60
2018-01-13T14:53:23.955Z,61.90
2018-01-13T14:55:50.275Z,62.10
2018-01-13T14:58:16.528Z,62.40
2018-01-13T15:00:42.818Z,62.30
2018-01-13T15:03:09.051Z,62.00
2018-01-13T15:05:35.321Z,61.90
2018-01-13T15:08:01.620Z,62.00
2018-01-13T15:10:27.887Z,61.60
2018-01-13T15:12:54.135Z,67.60
2018-01-13T15:15:20.378Z,62.20
2018-01-13T15:17:46.590Z,61.50
2018-01-13T15:20:15.469Z,61.50
2018-01-13T15:22:43.599Z,61.80
2018-01-13T15:25:09.839Z,61.10
2018-01-13T15:27:36.155Z,61.90
2018-01-13T15:30:03.367Z,61.80
2018-01-13T15:32:30.382Z,61.30
2018-01-13T15:34:56.635Z,61.20
2018-01-13T15:37:22.876Z,61.40
2018-01-13T15:39:49.146Z,61.30
2018-01-13T15:42:15.639Z,61.50
2018-01-13T15:44:42.986Z,61.80
2018-01-13T15:47:09.199Z,62.10
2018-01-13T15:49:42.105Z,62.40
2018-01-13T15:52:08.376Z,63.20
2018-01-13T15:54:34.634Z,63.40
2018-01-13T15:57:00.906Z,63.50
2018-01-13T15:59:33.301Z,64.20
2018-01-13T16:02:00.311Z,65.00
2018-01-13T16:04:27.244Z,64.90
2018-01-13T16:06:53.488Z,64.80
2018-01-13T16:09:19.760Z,65.20
2018-01-13T16:11:46.000Z,65.00
2018-01-13T16:14:12.987Z,65.00
2018-01-13T16:16:39.408Z,64.90
2018-01-13T16:19:05.783Z,65.60
2018-01-13T16:21:32.006Z,68.50
2018-01-13T16:23:58.247Z,64.70
2018-01-13T16:26:24.484Z,64.60
2018-01-13T16:28:50.704Z,65.00
2018-01-13T16:31:16.988Z,65.00
2018-01-13T16:33:43.219Z,65.50
2018-01-13T16:36:09.496Z,65.10
2018-01-13T16:38:35.714Z,64.60
2018-01-13T16:41:01.975Z,64.40
2018-01-13T16:43:28.218Z,64.60
2018-01-13T16:45:54.520Z,64.30
2018-01-13T16:48:20.753Z,64.20
2018-01-13T16:50:46.983Z,64.30
2018-01-13T16:53:13.230Z,64.40
2018-01-13T16:55:40.019Z,64.60
2018-01-13T16:58:06.275Z,64.00
2018-01-13T17:00:33.494Z,63.70
2018-01-13T17:02:59.747Z,63.70
2018-01-13T17:05:25.979Z,63.40
2018-01-13T17:07:52.210Z,63.30
2018-01-13T17:10:18.479Z,63.20
2018-01-13T17:12:45.531Z,63.20
2018-01-13T17:15:11.815Z,63.20
2018-01-13T17:17:38.026Z,63.10
2018-01-13T17:20:04.279Z,63.20
2018-01-13T17:22:30.495Z,63.40
2018-01-13T17:24:56.734Z,63.20
2018-01-13T17:27:22.964Z,63.30
2018-01-13T17:29:49.207Z,63.40
2018-01-13T17:32:15.442Z,63.00
2018-01-13T17:34:41.662Z,62.50
2018-01-13T17:37:07.915Z,62.50
2018-01-13T17:39:34.168Z,62.50
2018-01-13T17:42:00.399Z,62.40
2018-01-13T17:44:27.507Z,62.20
2018-01-13T17:46:53.756Z,62.10
2018-01-13T17:49:19.999Z,62.30
2018-01-13T17:51:48.985Z,62.20
2018-01-13T17:54:15.365Z,62.10
2018-01-13T17:56:41.663Z,64.20
2018-01-13T17:59:08.225Z,62.00
2018-01-13T18:01:37.561Z,61.90
2018-01-13T18:04:09.649Z,62.40
2018-01-13T18:06:36.192Z,62.80
2018-01-13T18:09:02.450Z,62.60
2018-01-13T18:11:29.480Z,62.50
2018-01-13T18:13:55.698Z,62.40
2018-01-13T18:16:21.950Z,62.20
2018-01-13T18:18:48.414Z,62.60
2018-01-13T18:21:14.686Z,62.80
2018-01-13T18:23:40.903Z,63.00
2018-01-13T18:26:07.147Z,62.90
2018-01-13T18:28:33.359Z,63.00
2018-01-13T18:30:59.611Z,62.60
2018-01-13T18:33:25.843Z,62.30
2018-01-13T18:35:52.082Z,62.10
2018-01-13T18:38:18.330Z,62.50
2018-01-13T18:40:44.555Z,62.00
2018-01-13T18:43:10.819Z,62.10
2018-01-13T18:45:37.052Z,62.50
2018-01-13T18:48:03.310Z,62.70
2018-01-13T18:50:29.651Z,62.50
2018-01-13T18:52:55.909Z,62.10
2018-01-13T18:55:22.154Z,62.10
2018-01-13T18:57:48.410Z,62.00
2018-01-13T19:00:14.637Z,61.90
2018-01-13T19:02:45.843Z,62.00
2018-01-13T19:05:12.083Z,62.00
2018-01-13T19:07:38.314Z,62.00
2018-01-13T19:10:04.555Z,61.80
2018-01-13T19:12:31.742Z,61.70
2018-01-13T19:14:57.995Z,61.70
2018-01-13T19:17:25.023Z,61.80
2018-01-13T19:19:51.476Z,61.70
2018-01-13T19:22:17.698Z,62.00
2018-01-13T19:24:43.979Z,62.20
2018-01-13T19:27:10.215Z,62.50
2018-01-13T19:29:36.466Z,62.60
2018-01-13T19:32:03.455Z,61.50
2018-01-13T19:34:29.699Z,61.40
2018-01-13T19:36:55.966Z,61.60
2018-01-13T19:39:22.171Z,61.80
2018-01-13T19:41:49.195Z,61.50
2018-01-13T19:44:15.407Z,61.50
2018-01-13T19:46:41.662Z,61.50
2018-01-13T19:49:07.883Z,61.60
2018-01-13T19:51:34.136Z,61.50
2018-01-13T19:54:00.366Z,62.10
2018-01-13T19:56:26.591Z,61.60
2018-01-13T19:58:53.480Z,61.80
2018-01-13T20:01:19.707Z,61.60
2018-01-13T20:03:45.964Z,61.50
2018-01-13T20:06:12.171Z,61.50
2018-01-13T20:08:38.395Z,61.60
2018-01-13T20:11:05.386Z,61.60
2018-01-13T20:13:31.715Z,61.50
2018-01-13T20:15:58.014Z,61.60
2018-01-13T20:18:24.243Z,62.00
2018-01-13T20:20:50.490Z,62.10
2018-01-13T20:23:16.703Z,62.20
2018-01-13T20:25:42.926Z,62.10
2018-01-13T20:28:09.149Z,62.00
2018-01-13T20:30:35.772Z,62.60
2018-01-13T20:33:02.779Z,62.10
2018-01-13T20:35:29.002Z,62.00
2018-01-13T20:37:55.255Z,61.90
2018-01-13T20:40:21.473Z,62.00
2018-01-13T20:42:47.747Z,62.60
2018-01-13T20:45:13.982Z,62.50
2018-01-13T20:47:40.247Z,62.60
2018-01-13T20:50:06.478Z,62.80
2018-01-13T20:52:32.746Z,63.20
2018-01-13T20:54:58.983Z,63.00
2018-01-13T20:57:25.259Z,62.60
2018-01-13T20:59:51.484Z,62.70
2018-01-13T21:02:18.467Z,62.80
2018-01-13T21:04:44.737Z,62.80
2018-01-13T21:07:10.967Z,63.10
2018-01-13T21:09:37.219Z,62.60
2018-01-13T21:12:03.506Z,62.90
2018-01-13T21:14:29.888Z,62.60
2018-01-13T21:16:56.448Z,62.60
2018-01-13T21:19:22.738Z,62.80
2018-01-13T21:21:48.975Z,63.60
2018-01-13T21:24:15.246Z,64.70
2018-01-13T21:26:41.537Z,63.20
2018-01-13T21:29:08.418Z,63.80
2018-01-13T21:31:34.713Z,63.00
2018-01-13T21:34:01.719Z,63.30
2018-01-13T21:36:28.975Z,63.20
2018-01-13T21:38:55.196Z,62.90
2018-01-13T21:41:21.468Z,63.30
2018-01-13T21:43:48.470Z,63.40
2018-01-13T21:46:14.722Z,63.40
2018-01-13T21:48:40.959Z,62.80
2018-01-13T21:51:07.228Z,63.10
2018-01-13T21:53:33.459Z,63.30
2018-01-13T21:55:59.686Z,63.20
2018-01-13T21:58:25.986Z,63.30
2018-01-13T22:00:58.992Z,62.80
2018-01-13T22:03:25.247Z,63.00
2018-01-13T22:05:57.653Z,63.00
2018-01-13T22:08:23.915Z,63.10
2018-01-13T22:10:50.185Z,63.00
2018-01-13T22:13:17.208Z,62.80
2018-01-13T22:15:43.429Z,62.80
2018-01-13T22:18:19.017Z,63.30
2018-01-13T22:20:45.255Z,62.90
2018-01-13T22:23:11.511Z,63.00
2018-01-13T22:25:37.754Z,63.30
2018-01-13T22:28:04.015Z,63.50
2018-01-13T22:30:30.332Z,63.20
2018-01-13T22:32:56.578Z,63.30
2018-01-13T22:35:26.246Z,63.30
2018-01-13T22:37:52.606Z,63.70
2018-01-13T22:40:18.867Z,63.60
2018-01-13T22:42:45.843Z,64.00
2018-01-13T22:45:12.111Z,63.90
2018-01-13T22:47:38.362Z,63.70
2018-01-13T22:50:04.595Z,63.70
2018-01-13T22:52:31.614Z,64.00
2018-01-13T22:54:57.862Z,64.00
2018-01-13T22:57:24.155Z,64.00
2018-01-13T22:59:50.388Z,63.70
2018-01-13T23:02:16.699Z,64.00
2018-01-13T23:04:42.995Z,64.00
2018-01-13T23:07:09.297Z,63.90
2018-01-13T23:09:36.327Z,64.30
2018-01-13T23:12:02.615Z,64.30
2018-01-13T23:14:28.879Z,64.20
2018-01-13T23:16:55.139Z,64.40
2018-01-13T23:19:21.405Z,64.30
2018-01-13T23:21:47.643Z,64.40
2018-01-13T23:24:14.654Z,64.40
2018-01-13T23:26:40.915Z,64.40
2018-01-13T23:29:07.163Z,64.10
2018-01-13T23:31:33.395Z,64.60
2018-01-13T23:33:59.678Z,64.70
2018-01-13T23:36:25.927Z,64.40
2018-01-13T23:38:52.216Z,64.60
2018-01-13T23:41:19.271Z,64.60
2018-01-13T23:43:45.516Z,64.60
2018-01-13T23:46:11.773Z,64.50
2018-01-13T23:48:38.174Z,64.70
2018-01-13T23:51:04.444Z,64.60
2018-01-13T23:53:30.687Z,64.80
2018-01-13T23:55:56.939Z,65.00
2018-01-13T23:58:23.206Z,65.10
